createdAt,value
2022-09-28T00:00:42.057Z,9.24
2022-09-28T00:03:09.554Z,9.34
2022-09-28T00:05:36.515Z,9.32
2022-09-28T00:08:03.183Z,9.37
2022-09-28T00:10:30.026Z,9.37
2022-09-28T00:12:56.795Z,9.41
2022-09-28T00:15:24.818Z,9.35
2022-09-28T00:17:51.459Z,9.39
2022-09-28T00:20:19.486Z,9.47
2022-09-28T00:22:46.145Z,9.36
2022-09-28T00:25:13.105Z,9.42
2022-09-28T00:27:40.324Z,9.45
2022-09-28T00:30:07.905Z,9.50
2022-09-28T00:32:34.733Z,9.46
2022-09-28T00:35:01.356Z,9.47
2022-09-28T00:37:28.174Z,9.51
2022-09-28T00:39:55.537Z,9.49
2022-09-28T00:42:24.342Z,9.50
2022-09-28T00:44:56.017Z,9.55
2022-09-28T00:47:45.580Z,9.52
2022-09-28T00:50:18.219Z,9.50
2022-09-28T00:52:50.968Z,9.53
2022-09-28T00:55:21.985Z,9.60
2022-09-28T00:57:57.926Z,9.56
2022-09-28T01:00:24.766Z,9.54
2022-09-28T01:02:51.589Z,9.44
2022-09-28T01:05:18.823Z,9.52
2022-09-28T01:07:46.651Z,9.55
2022-09-28T01:10:14.341Z,9.56
2022-09-28T01:12:41.449Z,9.54
2022-09-28T01:15:08.467Z,9.51
2022-09-28T01:17:44.371Z,9.52
2022-09-28T01:20:31.910Z,9.57
2022-09-28T01:23:17.335Z,9.59
2022-09-28T01:25:54.229Z,9.58
2022-09-28T01:28:26.029Z,9.61
2022-09-28T01:31:15.363Z,9.66
2022-09-28T01:33:48.423Z,9.73
2022-09-28T01:36:25.487Z,9.73
2022-09-28T01:39:09.089Z,9.75
2022-09-28T01:41:36.904Z,9.72
2022-09-28T01:44:06.469Z,9.73
2022-09-28T01:46:37.692Z,9.74
2022-09-28T01:49:27.105Z,9.71
2022-09-28T01:52:09.294Z,9.74
2022-09-28T01:54:44.867Z,9.74
2022-09-28T01:57:15.764Z,9.71
2022-09-28T01:59:47.611Z,9.73
2022-09-28T02:02:19.845Z,9.75
2022-09-28T02:04:51.391Z,9.76
2022-09-28T02:07:30.129Z,9.80
2022-09-28T02:10:04.201Z,9.79
2022-09-28T02:12:44.625Z,9.88
2022-09-28T02:15:17.163Z,9.79
2022-09-28T02:17:45.083Z,9.89
2022-09-28T02:20:13.380Z,9.87
2022-09-28T02:22:45.903Z,9.88
2022-09-28T02:25:30.359Z,9.97
2022-09-28T02:28:02.411Z,9.93
2022-09-28T02:30:34.108Z,9.96
2022-09-28T02:33:06.366Z,9.98
2022-09-28T02:35:35.451Z,9.97
2022-09-28T02:38:02.840Z,10.01
2022-09-28T02:40:34.444Z,9.98
2022-09-28T02:43:20.677Z,10.03
2022-09-28T02:46:00.542Z,10.03
2022-09-28T02:49:05.002Z,10.15
2022-09-28T02:51:58.050Z,10.07
2022-09-28T02:54:49.663Z,10.17
2022-09-28T02:57:53.951Z,10.13
2022-09-28T03:00:23.027Z,10.11
2022-09-28T03:02:58.203Z,10.14
2022-09-28T03:05:47.371Z,10.11
2022-09-28T03:08:20.120Z,10.08
2022-09-28T03:10:56.868Z,10.16
2022-09-28T03:13:25.313Z,10.20
2022-09-28T03:15:52.015Z,10.17
2022-09-28T03:18:18.922Z,10.19
2022-09-28T03:20:45.672Z,10.15
2022-09-28T03:23:24.352Z,10.17
2022-09-28T03:25:52.036Z,10.14
2022-09-28T03:28:18.696Z,10.21
2022-09-28T03:30:45.508Z,10.23
2022-09-28T03:33:12.305Z,10.19
2022-09-28T03:35:39.029Z,10.21
2022-09-28T03:38:05.800Z,10.15
2022-09-28T03:40:36.500Z,10.13
2022-09-28T03:43:03.431Z,10.15
2022-09-28T03:45:30.175Z,10.08
2022-09-28T03:47:56.831Z,10.21
2022-09-28T03:50:23.541Z,10.07
2022-09-28T03:52:50.153Z,10.04
2022-09-28T03:55:16.997Z,9.86
2022-09-28T03:57:43.646Z,9.78
2022-09-28T04:00:10.971Z,9.57
2022-09-28T04:02:40.564Z,9.66
2022-09-28T04:05:09.377Z,9.66
2022-09-28T04:07:37.550Z,9.83
2022-09-28T04:10:04.393Z,9.79
2022-09-28T04:12:31.296Z,9.87
2022-09-28T04:14:58.007Z,9.89
2022-09-28T04:17:24.691Z,9.65
2022-09-28T04:19:52.031Z,9.74
2022-09-28T04:22:25.629Z,9.77
2022-09-28T04:24:53.436Z,9.73
2022-09-28T04:27:38.757Z,9.74
2022-09-28T04:30:05.830Z,9.79
2022-09-28T04:32:34.098Z,9.89
2022-09-28T04:35:01.010Z,9.82
2022-09-28T04:37:27.713Z,9.75
2022-09-28T04:39:54.716Z,9.80
2022-09-28T04:42:21.415Z,9.79
2022-09-28T04:44:49.632Z,9.77
2022-09-28T04:47:16.631Z,9.75
2022-09-28T04:50:08.472Z,9.82
2022-09-28T04:52:55.100Z,9.74
2022-09-28T04:55:21.778Z,9.70
2022-09-28T04:57:48.489Z,9.84
2022-09-28T05:00:15.385Z,9.77
2022-09-28T05:02:51.292Z,9.77
2022-09-28T05:05:45.224Z,9.82
2022-09-28T05:08:40.956Z,9.80
2022-09-28T05:11:10.121Z,9.83
2022-09-28T05:13:42.931Z,9.83
2022-09-28T05:16:10.302Z,9.90
2022-09-28T05:18:56.520Z,9.79
2022-09-28T05:21:25.430Z,9.80
2022-09-28T05:23:52.627Z,9.84
2022-09-28T05:26:19.511Z,9.83
2022-09-28T05:28:46.271Z,9.79
2022-09-28T05:31:38.747Z,9.71
2022-09-28T05:34:17.151Z,9.71
2022-09-28T05:36:45.814Z,9.61
2022-09-28T05:39:12.560Z,9.71
2022-09-28T05:41:39.172Z,9.66
2022-09-28T05:44:05.843Z,9.70
2022-09-28T05:46:32.608Z,9.62
2022-09-28T05:49:01.051Z,9.59
2022-09-28T05:51:28.003Z,9.59
2022-09-28T05:54:00.740Z,9.50
2022-09-28T05:56:31.112Z,9.58
2022-09-28T05:58:58.801Z,9.44
2022-09-28T06:01:28.321Z,9.55
2022-09-28T06:03:57.199Z,9.60
2022-09-28T06:06:23.915Z,9.61
2022-09-28T06:08:50.851Z,9.63
2022-09-28T06:11:37.759Z,9.69
2022-09-28T06:14:13.779Z,9.66
2022-09-28T06:16:43.859Z,9.68
2022-09-28T06:19:11.909Z,9.68
2022-09-28T06:21:59.261Z,9.77
2022-09-28T06:24:26.331Z,9.78
2022-09-28T06:26:53.118Z,9.80
2022-09-28T06:29:20.845Z,9.85
2022-09-28T06:31:47.585Z,9.88
2022-09-28T06:34:14.746Z,9.78
2022-09-28T06:36:41.540Z,9.87
2022-09-28T06:39:08.951Z,9.86
2022-09-28T06:41:36.582Z,9.85
2022-09-28T06:44:13.304Z,9.94
2022-09-28T06:47:00.461Z,9.90
2022-09-28T06:49:51.379Z,10.01
2022-09-28T06:52:26.954Z,9.98
2022-09-28T06:55:13.829Z,9.99
2022-09-28T06:57:44.550Z,10.01
2022-09-28T07:00:12.035Z,10.10
2022-09-28T07:02:38.877Z,10.10
2022-09-28T07:05:16.922Z,10.25
2022-09-28T07:07:56.864Z,10.22
2022-09-28T07:10:43.794Z,10.29
2022-09-28T07:13:50.197Z,10.39
2022-09-28T07:16:24.149Z,10.41
2022-09-28T07:18:53.417Z,10.51
2022-09-28T07:21:29.347Z,10.64
2022-09-28T07:23:57.018Z,10.75
2022-09-28T07:26:24.698Z,10.86
2022-09-28T07:29:13.225Z,10.82
2022-09-28T07:31:54.800Z,10.76
2022-09-28T07:34:44.241Z,10.84
2022-09-28T07:37:15.942Z,10.63
2022-09-28T07:40:01.300Z,10.72
2022-09-28T07:42:30.840Z,10.69
2022-09-28T07:44:58.497Z,10.65
2022-09-28T07:47:34.687Z,10.74
2022-09-28T07:50:27.924Z,10.81
2022-09-28T07:53:15.058Z,10.92
2022-09-28T07:56:03.936Z,11.15
2022-09-28T07:58:50.755Z,11.20
2022-09-28T08:01:43.435Z,11.18
2022-09-28T08:04:13.893Z,11.42
2022-09-28T08:06:44.166Z,11.38
2022-09-28T08:09:12.814Z,11.19
2022-09-28T08:12:13.013Z,11.40
2022-09-28T08:14:59.712Z,11.65
2022-09-28T08:17:39.938Z,11.52
2022-09-28T08:20:27.209Z,11.26
2022-09-28T08:22:53.902Z,11.38
2022-09-28T08:25:21.108Z,11.39
2022-09-28T08:27:49.172Z,11.59
2022-09-28T08:30:15.937Z,11.48
2022-09-28T08:32:52.248Z,11.50
2022-09-28T08:35:37.296Z,11.63
2022-09-28T08:38:16.566Z,11.92
2022-09-28T08:41:26.273Z,12.14
2022-09-28T08:44:25.353Z,12.03
2022-09-28T08:47:35.893Z,11.95
2022-09-28T08:50:29.347Z,11.71
2022-09-28T08:53:09.696Z,11.79
2022-09-28T08:55:54.063Z,12.01
2022-09-28T08:58:24.427Z,11.60
2022-09-28T09:00:52.941Z,12.11
2022-09-28T09:03:27.871Z,11.76
2022-09-28T09:07:11.792Z,12.03
2022-09-28T09:09:45.596Z,12.11
2022-09-28T09:12:38.302Z,11.94
2022-09-28T09:15:30.888Z,12.23
2022-09-28T09:18:03.273Z,12.33
2022-09-28T09:20:54.167Z,12.55
2022-09-28T09:23:46.248Z,12.62
2022-09-28T09:26:23.217Z,12.62
2022-09-28T09:29:00.616Z,12.64
2022-09-28T09:31:48.326Z,12.87
2022-09-28T09:34:26.190Z,12.61
2022-09-28T09:37:49.998Z,12.86
2022-09-28T09:41:00.436Z,13.38
2022-09-28T09:44:17.700Z,12.74
2022-09-28T09:47:11.675Z,12.85
2022-09-28T09:50:05.477Z,12.85
2022-09-28T09:52:47.749Z,12.46
2022-09-28T09:55:30.113Z,12.42
2022-09-28T09:58:29.873Z,12.35
2022-09-28T10:01:17.862Z,12.27
2022-09-28T10:04:06.475Z,12.71
2022-09-28T10:06:35.291Z,12.23
2022-09-28T10:09:06.251Z,12.84
2022-09-28T10:11:54.452Z,12.58
2022-09-28T10:14:23.485Z,12.65
2022-09-28T10:17:02.512Z,12.89
2022-09-28T10:20:12.763Z,12.88
2022-09-28T10:23:23.199Z,12.90
2022-09-28T10:25:52.671Z,13.02
2022-09-28T10:28:29.617Z,12.81
2022-09-28T10:30:56.790Z,12.80
2022-09-28T10:33:30.438Z,12.64
2022-09-28T10:35:57.403Z,12.87
2022-09-28T10:38:24.699Z,12.85
2022-09-28T10:41:01.022Z,12.41
2022-09-28T10:44:13.485Z,12.26
2022-09-28T10:47:02.482Z,12.66
2022-09-28T10:49:46.727Z,13.09
2022-09-28T10:52:40.396Z,12.64
2022-09-28T10:55:30.618Z,12.86
2022-09-28T10:57:57.453Z,12.81
2022-09-28T11:00:36.445Z,12.77
2022-09-28T11:03:22.411Z,12.37
2022-09-28T11:05:56.247Z,12.50
2022-09-28T11:08:28.541Z,12.71
2022-09-28T11:11:03.918Z,12.59
2022-09-28T11:13:30.661Z,13.02
2022-09-28T11:16:05.064Z,13.04
2022-09-28T11:18:34.751Z,12.79
2022-09-28T11:21:27.351Z,12.79
2022-09-28T11:24:06.501Z,13.14
2022-09-28T11:26:48.007Z,13.32
2022-09-28T11:29:36.030Z,13.03
2022-09-28T11:32:29.489Z,13.29
2022-09-28T11:35:19.775Z,13.49
2022-09-28T11:37:52.908Z,13.78
2022-09-28T11:40:53.806Z,13.23
2022-09-28T11:43:43.062Z,13.38
2022-09-28T11:46:25.886Z,13.55
2022-09-28T11:48:58.368Z,13.57
2022-09-28T11:51:29.102Z,13.52
2022-09-28T11:54:00.451Z,13.47
2022-09-28T11:56:37.904Z,13.64
2022-09-28T11:59:56.070Z,13.77
2022-09-28T12:02:26.912Z,13.66
2022-09-28T12:05:00.546Z,13.28
2022-09-28T12:07:31.816Z,13.66
2022-09-28T12:10:09.529Z,13.59
2022-09-28T12:12:38.486Z,13.50
2022-09-28T12:15:17.921Z,13.56
2022-09-28T12:17:49.998Z,13.75
2022-09-28T12:20:25.650Z,13.83
2022-09-28T12:23:05.400Z,13.94
2022-09-28T12:25:46.339Z,13.94
2022-09-28T12:28:19.201Z,13.67
2022-09-28T12:30:47.673Z,13.92
2022-09-28T12:33:16.070Z,13.97
2022-09-28T12:36:06.956Z,13.91
2022-09-28T12:38:42.740Z,13.99
2022-09-28T12:41:31.428Z,13.98
2022-09-28T12:44:06.150Z,14.00
2022-09-28T12:46:46.053Z,14.06
2022-09-28T12:50:33.406Z,13.81
2022-09-28T12:55:37.587Z,14.24
2022-09-28T12:58:04.183Z,13.70
2022-09-28T13:00:36.079Z,14.04
2022-09-28T13:03:19.214Z,14.04
2022-09-28T13:06:23.350Z,13.81
2022-09-28T13:09:16.544Z,14.01
2022-09-28T13:11:47.434Z,14.07
2022-09-28T13:14:38.932Z,13.75
2022-09-28T13:17:40.597Z,14.04
2022-09-28T13:20:25.576Z,14.02
2022-09-28T13:23:12.659Z,14.03
2022-09-28T13:25:46.853Z,14.10
2022-09-28T13:28:15.751Z,14.41
2022-09-28T13:30:44.438Z,14.39
2022-09-28T13:33:18.683Z,14.33
2022-09-28T13:35:45.773Z,13.90
2022-09-28T13:38:16.163Z,13.96
2022-09-28T13:41:04.524Z,13.98
2022-09-28T13:44:10.250Z,13.81
2022-09-28T13:46:49.030Z,13.91
2022-09-28T13:49:35.243Z,13.60
2022-09-28T13:52:08.050Z,13.65
2022-09-28T13:54:47.091Z,13.35
2022-09-28T13:57:19.741Z,13.82
2022-09-28T14:00:22.613Z,13.69
2022-09-28T14:03:24.421Z,13.49
2022-09-28T14:06:00.862Z,13.59
2022-09-28T14:08:40.087Z,13.78
2022-09-28T14:11:27.074Z,13.70
2022-09-28T14:14:08.860Z,13.68
2022-09-28T14:16:36.315Z,13.79
2022-09-28T14:19:17.158Z,13.67
2022-09-28T14:22:17.873Z,13.55
2022-09-28T14:25:03.718Z,13.53
2022-09-28T14:28:08.087Z,13.58
2022-09-28T14:30:43.585Z,13.61
2022-09-28T14:33:38.881Z,13.68
2022-09-28T14:36:43.814Z,13.74
2022-09-28T14:39:41.306Z,13.59
2022-09-28T14:42:10.239Z,13.60
2022-09-28T14:45:07.055Z,13.62
2022-09-28T14:47:42.236Z,13.68
2022-09-28T14:50:35.093Z,13.48
2022-09-28T14:53:06.679Z,13.22
2022-09-28T14:55:41.988Z,13.15
2022-09-28T14:58:16.360Z,13.07
2022-09-28T15:00:44.384Z,13.28
2022-09-28T15:03:15.485Z,13.37
2022-09-28T15:05:47.233Z,13.21
2022-09-28T15:08:14.150Z,13.24
2022-09-28T15:10:46.220Z,13.32
2022-09-28T15:13:23.336Z,13.10
2022-09-28T15:15:52.632Z,13.01
2022-09-28T15:18:32.306Z,12.96
2022-09-28T15:21:03.179Z,13.18
2022-09-28T15:23:41.627Z,12.99
2022-09-28T15:26:31.106Z,13.11
2022-09-28T15:28:58.899Z,13.10
2022-09-28T15:31:27.259Z,13.13
2022-09-28T15:34:12.611Z,13.09
2022-09-28T15:36:44.245Z,13.08
2022-09-28T15:39:21.555Z,12.90
2022-09-28T15:41:50.137Z,12.95
2022-09-28T15:44:24.284Z,13.03
2022-09-28T15:47:07.451Z,13.18
2022-09-28T15:49:46.919Z,13.06
2022-09-28T15:52:41.877Z,13.05
2022-09-28T15:55:19.924Z,12.92
2022-09-28T15:57:47.528Z,12.88
2022-09-28T16:00:27.707Z,12.82
2022-09-28T16:03:03.919Z,12.66
2022-09-28T16:05:40.568Z,12.68
2022-09-28T16:08:21.300Z,12.59
2022-09-28T16:11:11.039Z,12.56
2022-09-28T16:13:48.919Z,12.55
2022-09-28T16:16:16.543Z,12.46
2022-09-28T16:18:48.257Z,12.44
2022-09-28T16:21:55.743Z,12.45
2022-09-28T16:24:26.790Z,12.28
2022-09-28T16:26:59.440Z,12.21
2022-09-28T16:29:27.745Z,12.11
2022-09-28T16:31:55.728Z,12.16
2022-09-28T16:34:26.641Z,12.10
2022-09-28T16:36:53.409Z,11.93
2022-09-28T16:39:20.849Z,11.74
2022-09-28T16:41:50.783Z,11.57
2022-09-28T16:44:28.546Z,11.38
2022-09-28T16:46:57.532Z,11.20
2022-09-28T16:49:25.657Z,11.06
2022-09-28T16:51:52.735Z,10.96
2022-09-28T16:54:40.547Z,10.93
2022-09-28T16:57:10.283Z,10.97
2022-09-28T16:59:38.526Z,10.98
2022-09-28T17:05:13.984Z,10.95
2022-09-28T17:07:40.940Z,10.90
2022-09-28T17:10:24.341Z,10.90
2022-09-28T17:12:52.192Z,10.94
2022-09-28T17:15:19.739Z,10.97
2022-09-28T17:17:47.957Z,11.00
2022-09-28T17:20:27.136Z,10.88
2022-09-28T17:22:54.123Z,10.92
2022-09-28T17:25:22.206Z,10.89
2022-09-28T17:27:49.579Z,10.82
2022-09-28T17:30:17.352Z,10.71
2022-09-28T17:32:47.271Z,10.57
2022-09-28T17:35:24.726Z,10.40
2022-09-28T17:37:52.590Z,10.29
2022-09-28T17:40:25.734Z,10.26
2022-09-28T17:42:55.181Z,10.23
2022-09-28T17:45:23.713Z,10.25
2022-09-28T17:47:50.296Z,10.24
2022-09-28T17:50:21.300Z,10.29
2022-09-28T17:52:52.683Z,10.42
2022-09-28T17:55:30.818Z,10.56
2022-09-28T17:57:58.433Z,10.59
2022-09-28T18:00:27.516Z,10.63
2022-09-28T18:02:58.257Z,10.66
2022-09-28T18:05:26.387Z,10.67
2022-09-28T18:07:53.340Z,10.65
2022-09-28T18:10:22.160Z,10.63
2022-09-28T18:12:49.784Z,10.62
2022-09-28T18:15:18.180Z,10.60
2022-09-28T18:17:45.118Z,10.60
2022-09-28T18:20:12.767Z,10.55
2022-09-28T18:22:39.723Z,10.52
2022-09-28T18:25:07.035Z,10.49
2022-09-28T18:27:37.025Z,10.42
2022-09-28T18:30:05.430Z,10.33
2022-09-28T18:32:36.837Z,10.26
2022-09-28T18:35:05.212Z,10.13
2022-09-28T18:37:36.344Z,10.18
2022-09-28T18:40:03.726Z,10.23
2022-09-28T18:42:30.343Z,10.20
2022-09-28T18:44:56.968Z,10.10
2022-09-28T18:47:23.911Z,10.09
2022-09-28T18:49:51.223Z,9.99
2022-09-28T18:52:17.913Z,9.98
2022-09-28T18:54:46.709Z,9.83
2022-09-28T18:57:13.348Z,9.81
2022-09-28T18:59:39.996Z,9.70
2022-09-28T19:02:06.929Z,9.64
2022-09-28T19:04:33.667Z,9.49
2022-09-28T19:07:00.325Z,9.42
2022-09-28T19:09:28.151Z,9.31
2022-09-28T19:11:54.905Z,9.30
2022-09-28T19:14:21.772Z,9.28
2022-09-28T19:16:48.521Z,9.26
2022-09-28T19:19:16.839Z,9.22
2022-09-28T19:21:43.916Z,9.12
2022-09-28T19:24:15.538Z,9.18
2022-09-28T19:26:42.805Z,9.26
2022-09-28T19:29:10.429Z,9.23
2022-09-28T19:31:37.365Z,9.10
2022-09-28T19:34:04.520Z,9.12
2022-09-28T19:36:31.546Z,9.06
2022-09-28T19:39:03.524Z,9.02
2022-09-28T19:41:43.305Z,8.96
2022-09-28T19:44:19.556Z,8.90
2022-09-28T19:46:46.397Z,8.92
2022-09-28T19:49:15.268Z,8.96
2022-09-28T19:52:01.655Z,9.03
2022-09-28T19:54:36.299Z,9.02
2022-09-28T19:57:08.751Z,8.96
2022-09-28T19:59:39.054Z,8.91
2022-09-28T20:02:07.227Z,8.94
2022-09-28T20:04:33.969Z,8.99
2022-09-28T20:07:01.554Z,8.95
2022-09-28T20:09:28.317Z,8.95
2022-09-28T20:11:55.130Z,8.90
2022-09-28T20:14:24.495Z,8.87
2022-09-28T20:16:53.411Z,8.81
2022-09-28T20:19:22.046Z,8.78
2022-09-28T20:21:49.404Z,8.80
2022-09-28T20:24:17.202Z,8.88
2022-09-28T20:26:44.701Z,8.97
2022-09-28T20:29:11.999Z,9.10
2022-09-28T20:31:38.916Z,9.20
2022-09-28T20:34:06.509Z,9.25
2022-09-28T20:36:33.616Z,9.36
2022-09-28T20:39:12.853Z,9.35
2022-09-28T20:41:42.553Z,9.34
2022-09-28T20:44:10.075Z,9.31
2022-09-28T20:46:37.023Z,9.28
2022-09-28T20:49:04.999Z,9.23
2022-09-28T20:51:31.866Z,9.21
2022-09-28T20:53:59.256Z,9.23
2022-09-28T20:56:30.637Z,9.23
2022-09-28T20:58:57.495Z,9.25
2022-09-28T21:01:30.049Z,9.25
2022-09-28T21:03:57.606Z,9.21
2022-09-28T21:06:29.523Z,9.10
2022-09-28T21:08:56.283Z,8.96
2022-09-28T21:11:24.556Z,8.86
2022-09-28T21:14:02.030Z,8.82
2022-09-28T21:16:30.662Z,8.76
2022-09-28T21:18:57.793Z,8.68
2022-09-28T21:21:25.593Z,8.71
2022-09-28T21:23:56.191Z,8.71
2022-09-28T21:26:25.979Z,8.74
2022-09-28T21:28:57.964Z,8.70
2022-09-28T21:31:28.905Z,8.69
2022-09-28T21:33:56.787Z,8.72
2022-09-28T21:36:23.473Z,8.82
2022-09-28T21:38:50.183Z,8.84
2022-09-28T21:41:21.123Z,8.84
2022-09-28T21:43:47.763Z,8.80
2022-09-28T21:46:14.488Z,8.73
2022-09-28T21:48:41.224Z,8.67
2022-09-28T21:51:09.277Z,8.55
2022-09-28T21:53:37.060Z,8.54
2022-09-28T21:56:05.847Z,8.49
2022-09-28T21:58:34.080Z,8.44
2022-09-28T22:01:03.759Z,8.40
2022-09-28T22:03:31.735Z,8.44
2022-09-28T22:05:58.642Z,8.47
2022-09-28T22:08:25.703Z,8.46
2022-09-28T22:11:22.771Z,8.50
2022-09-28T22:13:55.220Z,8.55
2022-09-28T22:16:23.895Z,8.57
2022-09-28T22:18:50.723Z,8.55
2022-09-28T22:21:23.153Z,8.58
2022-09-28T22:23:50.091Z,8.59
2022-09-28T22:26:23.520Z,8.59
2022-09-28T22:29:01.771Z,8.55
2022-09-28T22:31:30.942Z,8.56
2022-09-28T22:33:58.273Z,8.58
2022-09-28T22:36:25.991Z,8.56
2022-09-28T22:38:54.062Z,8.55
2022-09-28T22:41:21.111Z,8.52
2022-09-28T22:43:49.115Z,8.51
2022-09-28T22:46:18.276Z,8.55
2022-09-28T22:48:50.016Z,8.55
2022-09-28T22:51:17.057Z,8.54
2022-09-28T22:53:46.963Z,8.50
2022-09-28T22:56:18.387Z,8.51
2022-09-28T22:58:46.334Z,8.47
2022-09-28T23:01:19.828Z,8.41
2022-09-28T23:03:47.033Z,8.42
2022-09-28T23:06:16.704Z,8.41
2022-09-28T23:08:45.380Z,8.36
2022-09-28T23:11:12.088Z,8.35
2022-09-28T23:13:38.804Z,8.36
2022-09-28T23:16:07.883Z,8.32
2022-09-28T23:18:37.515Z,8.34
2022-09-28T23:21:06.053Z,8.36
2022-09-28T23:23:33.149Z,8.37
2022-09-28T23:26:00.298Z,8.36
2022-09-28T23:28:27.420Z,8.38
2022-09-28T23:30:54.417Z,8.38
2022-09-28T23:33:21.792Z,8.38
2022-09-28T23:35:48.505Z,8.39
2022-09-28T23:38:18.165Z,8.41
2022-09-28T23:40:46.057Z,8.45
2022-09-28T23:43:13.267Z,8.42
2022-09-28T23:45:40.688Z,8.50
2022-09-28T23:48:07.533Z,8.56
2022-09-28T23:50:34.300Z,8.59
2022-09-28T23:53:01.012Z,8.65
2022-09-28T23:55:27.787Z,8.57
2022-09-28T23:57:56.805Z,8.38
